Time;durP1;ratioP1;P1;durP2;ratioP2;P2;SDS_P1;SDS_P2;PMS_P1;PMS_P2;Temp;Humidity;BMP_temperature;BMP_pressure;BME280_temperature;BME280_humidity;BME280_pressure;Samples;Min_cycle;Max_cycle;Signal;HPM_P1;HPM_P2
2021/06/10 00:01:29;;;;;;;3.13;2.15;;;;;;;18.11;71.46;101086.97;4898742;29;20120;-76
2021/06/10 00:03:56;;;;;;;3.97;2.42;;;;;;;18.04;71.68;101089.72;4898765;29;20100;-77
2021/06/10 00:06:23;;;;;;;2.78;2.10;;;;;;;17.96;71.98;101094.47;4898287;29;20053;-77
2021/06/10 00:08:49;;;;;;;3.22;1.80;;;;;;;17.94;72.07;101091.25;4881798;29;20473;-76
2021/06/10 00:11:16;;;;;;;3.45;1.95;;;;;;;17.97;71.89;101089.69;4897027;29;20063;-77
2021/06/10 00:13:43;;;;;;;4.18;2.45;;;;;;;17.97;71.89;101084.06;4901270;29;20036;-77
2021/06/10 00:16:10;;;;;;;6.00;2.30;;;;;;;17.93;71.68;101086.03;4872719;29;20048;-78
2021/06/10 00:18:37;;;;;;;4.22;2.35;;;;;;;17.91;71.74;101089.22;4880891;29;20041;-77
2021/06/10 00:21:05;;;;;;;3.58;2.35;;;;;;;17.88;71.90;101087.19;4897983;29;20041;-76
2021/06/10 00:23:32;;;;;;;3.28;2.17;;;;;;;17.82;72.12;101097.13;4901322;29;20049;-77
2021/06/10 00:25:59;;;;;;;3.00;2.08;;;;;;;17.79;72.02;101088.72;4896011;29;20522;-77
2021/06/10 00:28:26;;;;;;;2.50;2.00;;;;;;;17.77;72.24;101088.28;4898069;29;20048;-77
2021/06/10 00:30:53;;;;;;;4.55;3.08;;;;;;;17.73;72.10;101087.44;4905306;29;20601;-77
2021/06/10 00:33:20;;;;;;;4.72;3.05;;;;;;;17.67;72.28;101080.59;4898245;29;20048;-77
2021/06/10 00:35:46;;;;;;;3.45;2.38;;;;;;;17.61;72.39;101077.31;4897321;29;20057;-76
2021/06/10 00:38:13;;;;;;;4.38;2.30;;;;;;;17.57;72.65;101076.50;4897481;29;20052;-77
2021/06/10 00:40:40;;;;;;;3.33;2.30;;;;;;;17.55;72.48;101079.66;4898158;29;20488;-77
2021/06/10 00:43:07;;;;;;;3.55;2.22;;;;;;;17.58;72.35;101083.69;4897610;29;20055;-77
2021/06/10 00:45:34;;;;;;;3.80;2.65;;;;;;;17.56;72.48;101074.88;4897183;29;20055;-77
2021/06/10 00:48:00;;;;;;;5.72;4.30;;;;;;;17.51;72.67;101070.41;4907413;29;20083;-77
2021/06/10 00:50:46;;;;;;;4.63;2.78;;;;;;;17.45;72.99;101060.75;4881407;29;20056;-77
2021/06/10 00:53:21;;;;;;;3.45;2.00;;;;;;;17.47;72.73;101061.16;4897199;29;20130;-77
2021/06/10 00:55:54;;;;;;;5.32;2.63;;;;;;;17.45;73.08;101052.34;4896898;29;20101;-77
2021/06/10 00:58:21;;;;;;;2.80;1.85;;;;;;;17.44;72.77;101061.94;4897399;29;20509;-78
2021/06/10 01:00:49;;;;;;;4.97;2.20;;;;;;;17.44;73.00;101066.72;4897767;29;20072;-77
2021/06/10 01:03:16;;;;;;;5.65;2.88;;;;;;;17.46;72.73;101065.16;4900997;29;20568;-77
2021/06/10 01:05:48;;;;;;;3.00;1.98;;;;;;;17.42;72.67;101067.09;4896271;29;20080;-78
2021/06/10 01:08:38;;;;;;;6.35;2.63;;;;;;;17.40;73.03;101061.09;4897597;29;20053;-78
2021/06/10 01:11:17;;;;;;;4.13;2.35;;;;;;;17.37;73.06;101070.25;4897498;29;20055;-77
2021/06/10 01:13:58;;;;;;;3.90;2.53;;;;;;;17.37;72.78;101073.03;4897953;29;20059;-77
2021/06/10 01:16:30;;;;;;;5.07;2.50;;;;;;;17.34;72.55;101073.03;4895838;29;20052;-76
2021/06/10 01:19:00;;;;;;;6.78;2.03;;;;;;;17.26;72.96;101079.72;4900246;29;20119;-78
2021/06/10 01:21:28;;;;;;;5.28;2.55;;;;;;;17.17;72.94;101084.81;4897345;29;20058;-76
2021/06/10 01:24:31;;;;;;;4.55;2.10;;;;;;;17.13;73.47;101083.97;4896971;29;20064;-77
2021/06/10 01:27:29;;;;;;;3.50;2.67;;;;;;;17.13;73.26;101078.38;4860821;29;20068;-78
2021/06/10 01:30:04;;;;;;;3.70;2.38;;;;;;;17.15;73.00;101095.59;4896590;29;20044;-77
2021/06/10 01:32:33;;;;;;;3.80;2.30;;;;;;;17.12;72.96;101083.16;4904830;29;20036;-77
2021/06/10 01:35:02;;;;;;;4.07;2.60;;;;;;;17.09;73.03;101083.91;4896609;29;20076;-79
2021/06/10 01:37:32;;;;;;;3.45;2.13;;;;;;;17.00;73.41;101080.59;4897036;29;20124;-77
2021/06/10 01:40:00;;;;;;;3.63;2.50;;;;;;;16.95;73.47;101081.75;4896993;29;20060;-77
2021/06/10 01:42:29;;;;;;;3.55;2.22;;;;;;;16.93;73.55;101081.31;4896799;29;20036;-77
2021/06/10 01:44:58;;;;;;;2.90;2.10;;;;;;;16.94;73.24;101076.53;4893343;29;20099;-77
2021/06/10 01:47:26;;;;;;;3.20;2.03;;;;;;;16.91;73.56;101078.09;4900461;29;20048;-77
2021/06/10 01:49:57;;;;;;;3.17;1.90;;;;;;;16.89;73.60;101074.88;4899676;29;20044;-77
2021/06/10 01:52:26;;;;;;;1.90;1.52;;;;;;;16.91;73.35;101074.50;4897073;29;20046;-78
2021/06/10 01:54:55;;;;;;;3.60;1.90;;;;;;;16.91;73.33;101078.09;4895404;29;20053;-76
2021/06/10 01:57:23;;;;;;;3.63;2.33;;;;;;;16.87;73.39;101074.44;4896353;29;20400;-77
2021/06/10 01:59:50;;;;;;;3.67;1.98;;;;;;;16.86;73.33;101067.25;4899334;29;20115;-77
2021/06/10 02:02:19;;;;;;;2.33;1.73;;;;;;;16.85;73.51;101064.81;4901438;29;20048;-77
2021/06/10 02:04:47;;;;;;;3.88;2.03;;;;;;;16.79;73.39;101066.34;4883449;29;20450;-76
2021/06/10 02:07:14;;;;;;;3.58;1.75;;;;;;;16.77;73.68;101068.72;4893013;29;20047;-77
2021/06/10 02:09:42;;;;;;;3.88;1.63;;;;;;;16.75;73.64;101068.28;4896074;29;20501;-77
2021/06/10 02:12:11;;;;;;;2.72;2.22;;;;;;;16.70;73.70;101060.25;4894359;29;20055;-77
2021/06/10 02:14:40;;;;;;;3.85;1.80;;;;;;;16.72;74.06;101071.84;4900679;29;20047;-77
2021/06/10 02:17:07;;;;;;;2.78;1.98;;;;;;;16.69;73.74;101067.81;4897709;29;20064;-77
2021/06/10 02:19:37;;;;;;;2.85;1.92;;;;;;;16.61;74.14;101077.28;4908432;29;20885;-77
2021/06/10 02:22:05;;;;;;;3.50;2.38;;;;;;;16.60;74.12;101072.09;4897043;29;20058;-78
2021/06/10 02:24:32;;;;;;;1.48;1.30;;;;;;;16.57;74.05;101075.63;4888790;29;20051;-77
2021/06/10 02:26:59;;;;;;;1.95;1.75;;;;;;;16.55;73.70;101080.81;4895841;29;20484;-77
2021/06/10 02:29:25;;;;;;;2.72;1.80;;;;;;;16.56;73.92;101082.41;4879796;29;20049;-77
2021/06/10 02:31:52;;;;;;;2.72;2.08;;;;;;;16.54;74.12;101085.59;4903691;29;20047;-77
2021/06/10 02:34:19;;;;;;;2.80;1.65;;;;;;;16.57;73.93;101078.44;4895705;29;20532;-77
2021/06/10 02:36:47;;;;;;;5.97;3.17;;;;;;;16.56;74.09;101082.41;4896171;29;20136;-77
2021/06/10 02:39:16;;;;;;;3.65;1.88;;;;;;;16.56;73.86;101077.63;4901483;29;20492;-77
2021/06/10 02:41:49;;;;;;;2.95;1.67;;;;;;;16.51;74.05;101060.34;4900803;29;20044;-77
2021/06/10 02:44:16;;;;;;;2.67;1.15;;;;;;;16.47;74.18;101070.66;4902705;29;20049;-77
2021/06/10 02:46:44;;;;;;;1.90;1.35;;;;;;;16.50;74.09;101075.47;4902945;29;20049;-76
2021/06/10 02:49:13;;;;;;;1.60;1.30;;;;;;;16.48;74.18;101067.47;4904395;29;20123;-76
2021/06/10 02:51:40;;;;;;;1.90;1.50;;;;;;;16.46;74.09;101064.28;4902365;29;20052;-77
2021/06/10 02:54:10;;;;;;;2.28;1.40;;;;;;;16.50;74.09;101069.88;4902267;29;20063;-77
2021/06/10 02:56:38;;;;;;;1.85;1.48;;;;;;;16.50;74.09;101064.31;4870319;29;20435;-77
2021/06/10 02:59:06;;;;;;;1.48;1.20;;;;;;;16.50;74.09;101062.31;4902339;29;20119;-76
2021/06/10 03:01:40;;;;;;;1.90;1.60;;;;;;;16.49;74.48;101060.72;4885356;29;20404;-77
2021/06/10 03:04:09;;;;;;;0.80;0.80;;;;;;;16.52;74.52;101061.97;4905107;29;20112;-77
2021/06/10 03:06:37;;;;;;;1.67;1.58;;;;;;;16.56;74.30;101060.03;4901947;29;20050;-77
2021/06/10 03:09:05;;;;;;;1.70;1.20;;;;;;;16.61;74.45;101051.31;4902108;29;20128;-77
2021/06/10 03:11:32;;;;;;;1.25;1.15;;;;;;;16.60;74.29;101061.69;4900625;29;20047;-77
2021/06/10 03:14:01;;;;;;;1.17;1.02;;;;;;;16.63;74.35;101055.34;4903173;29;20127;-77
2021/06/10 03:16:28;;;;;;;1.80;0.95;;;;;;;16.65;74.36;101060.56;4895828;29;20127;-77
2021/06/10 03:18:56;;;;;;;1.02;0.88;;;;;;;16.67;74.38;101049.81;4902642;29;20099;-77
2021/06/10 03:21:27;;;;;;;0.82;0.70;;;;;;;16.66;74.38;101056.56;4901707;29;20040;-77
2021/06/10 03:23:54;;;;;;;0.93;0.82;;;;;;;16.70;74.29;101058.25;4902045;29;20083;-77
2021/06/10 03:26:22;;;;;;;1.08;0.95;;;;;;;16.74;74.25;101049.91;4902190;29;20400;-77
2021/06/10 03:28:49;;;;;;;1.10;0.80;;;;;;;16.75;74.12;101045.94;4901407;29;20076;-77
2021/06/10 03:31:20;;;;;;;2.00;0.70;;;;;;;16.75;74.22;101045.94;4907230;29;20055;-77
2021/06/10 03:33:51;;;;;;;0.73;0.73;;;;;;;16.74;74.49;101045.13;4901435;29;20805;-78
2021/06/10 03:36:19;;;;;;;0.53;0.50;;;;;;;16.76;74.35;101048.31;4901778;29;20124;-77
2021/06/10 03:38:47;;;;;;;1.40;0.90;;;;;;;16.79;74.42;101052.34;4902048;29;20382;-77
2021/06/10 03:41:16;;;;;;;0.30;0.30;;;;;;;16.78;74.50;101048.78;4901626;29;20040;-76
2021/06/10 03:43:44;;;;;;;0.50;0.50;;;;;;;16.83;74.64;101050.44;4892885;29;20040;-78
2021/06/10 03:46:11;;;;;;;0.43;0.40;;;;;;;16.86;74.73;101042.09;4900231;29;20127;-77
2021/06/10 03:48:40;;;;;;;0.50;0.40;;;;;;;16.93;74.61;101044.16;4904838;29;20048;-77
2021/06/10 03:51:15;;;;;;;0.60;0.47;;;;;;;16.94;75.24;101040.19;4898390;29;20052;-77
2021/06/10 03:53:46;;;;;;;0.68;0.28;;;;;;;16.96;75.04;101026.63;4898168;29;20049;-77
2021/06/10 03:56:13;;;;;;;0.40;0.40;;;;;;;16.97;74.88;101025.44;4898795;29;20056;-77
2021/06/10 03:58:39;;;;;;;0.60;0.38;;;;;;;16.96;75.08;101021.03;4898513;29;20096;-77
2021/06/10 04:01:06;;;;;;;0.32;0.32;;;;;;;16.95;74.89;101027.78;4898842;29;20134;-77
2021/06/10 04:03:33;;;;;;;0.20;0.20;;;;;;;16.91;75.10;101026.97;4903450;29;20051;-78
2021/06/10 04:06:01;;;;;;;1.45;0.65;;;;;;;16.87;74.82;101023.28;4897727;29;20471;-77
2021/06/10 04:08:28;;;;;;;0.43;0.40;;;;;;;16.83;75.15;101019.66;4898071;29;20044;-77
2021/06/10 04:10:55;;;;;;;0.70;0.25;;;;;;;16.81;75.08;101014.44;4897509;29;20044;-77
2021/06/10 04:13:21;;;;;;;0.40;0.40;;;;;;;16.80;75.43;101012.03;4897955;29;20441;-77
2021/06/10 04:15:49;;;;;;;0.68;0.55;;;;;;;16.80;75.39;101017.63;4898139;29;20100;-77
2021/06/10 04:18:19;;;;;;;0.20;0.20;;;;;;;16.78;75.41;101023.59;4898480;29;20037;-77
2021/06/10 04:20:49;;;;;;;0.93;0.68;;;;;;;16.78;75.50;101022.81;4897851;29;20036;-77
2021/06/10 04:23:16;;;;;;;0.47;0.30;;;;;;;16.76;75.48;101025.19;4900721;29;20051;-77
2021/06/10 04:25:43;;;;;;;0.52;0.47;;;;;;;16.76;75.52;101017.56;4891306;29;20055;-77
2021/06/10 04:28:11;;;;;;;1.42;0.43;;;;;;;16.77;75.35;101018.38;4897036;29;20049;-78
2021/06/10 04:30:38;;;;;;;0.50;0.50;;;;;;;16.78;75.66;101017.22;4898371;29;20100;-76
2021/06/10 04:33:05;;;;;;;0.40;0.38;;;;;;;16.77;75.97;101016.41;4895817;29;20408;-77
2021/06/10 04:35:32;;;;;;;0.70;0.70;;;;;;;16.79;75.89;101024.41;4897151;29;20072;-77
2021/06/10 04:38:00;;;;;;;2.15;0.63;;;;;;;16.83;75.85;101026.06;4897870;29;20096;-77
2021/06/10 04:40:27;;;;;;;0.93;0.50;;;;;;;16.85;75.86;101017.28;4897771;29;20079;-78
2021/06/10 04:42:54;;;;;;;0.57;0.57;;;;;;;16.86;75.96;101018.91;4898124;29;22043;-77
2021/06/10 04:45:21;;;;;;;0.77;0.77;;;;;;;16.88;75.93;101022.13;4897440;29;20096;-77
2021/06/10 04:47:47;;;;;;;1.58;0.52;;;;;;;16.90;75.89;101028.13;4896879;29;20044;-76
2021/06/10 04:50:18;;;;;;;0.30;0.30;;;;;;;16.90;75.69;101022.53;4895115;29;20131;-77
2021/06/10 04:52:45;;;;;;;1.52;0.60;;;;;;;16.93;75.78;101022.59;4897603;29;20404;-77
2021/06/10 04:55:12;;;;;;;0.80;0.60;;;;;;;16.94;75.62;101023.41;4897695;29;20066;-77
2021/06/10 04:57:39;;;;;;;0.40;0.35;;;;;;;16.95;75.64;101019.41;4897326;29;20041;-77
2021/06/10 05:00:06;;;;;;;0.63;0.40;;;;;;;16.95;75.66;101023.00;4898340;29;20044;-77
2021/06/10 05:02:33;;;;;;;0.73;0.50;;;;;;;16.98;75.61;101021.44;4899964;29;20067;-77
2021/06/10 05:05:00;;;;;;;0.50;0.40;;;;;;;16.98;75.60;101016.66;4897546;29;20052;-77
2021/06/10 05:07:27;;;;;;;0.50;0.50;;;;;;;17.03;75.37;101019.09;4872732;29;20535;-78
2021/06/10 05:09:53;;;;;;;0.40;0.40;;;;;;;17.08;75.49;101022.78;4904456;29;20164;-77
2021/06/10 05:12:20;;;;;;;1.23;0.73;;;;;;;17.10;75.42;101025.97;4898610;29;20045;-77
2021/06/10 05:14:48;;;;;;;0.43;0.28;;;;;;;17.11;75.45;101020.00;4877340;29;20036;-76
2021/06/10 05:17:15;;;;;;;0.30;0.30;;;;;;;17.12;75.66;101027.22;4900515;29;20091;-77
2021/06/10 05:19:42;;;;;;;0.68;0.28;;;;;;;17.16;75.68;101016.03;4897754;29;20041;-77
2021/06/10 05:22:09;;;;;;;0.35;0.30;;;;;;;17.18;75.19;101017.28;4900921;29;20123;-77
2021/06/10 05:24:36;;;;;;;0.30;0.30;;;;;;;17.21;75.33;101024.88;4905644;29;20040;-78
2021/06/10 05:27:06;;;;;;;0.60;0.40;;;;;;;17.26;75.40;101016.16;4896561;29;20049;-77
2021/06/10 05:29:33;;;;;;;0.55;0.40;;;;;;;17.30;75.36;101008.59;4897182;29;20124;-77
2021/06/10 05:32:00;;;;;;;0.20;0.20;;;;;;;17.37;75.15;101016.25;4896685;29;20075;-77
2021/06/10 05:34:28;;;;;;;0.20;0.20;;;;;;;17.39;74.93;101013.91;4897220;29;20097;-77
2021/06/10 05:36:56;;;;;;;0.85;0.30;;;;;;;17.42;75.06;101007.53;4896400;29;20033;-77
2021/06/10 05:39:23;;;;;;;0.43;0.40;;;;;;;17.47;74.95;101004.38;4897318;29;20135;-77
2021/06/10 05:41:51;;;;;;;0.88;0.40;;;;;;;17.50;75.03;101003.63;4899966;29;20119;-78
2021/06/10 05:44:17;;;;;;;0.30;0.30;;;;;;;17.53;74.83;100998.06;4897330;29;20123;-77
2021/06/10 05:46:48;;;;;;;1.73;1.48;;;;;;;17.59;75.14;101001.31;4896496;29;20045;-77
2021/06/10 05:49:16;;;;;;;2.10;0.40;;;;;;;17.61;74.63;100999.72;4896769;29;20560;-77
2021/06/10 05:51:44;;;;;;;0.77;0.60;;;;;;;17.64;75.02;101010.16;4895705;29;20080;-77
2021/06/10 05:54:11;;;;;;;0.85;0.55;;;;;;;17.72;74.94;101011.03;4880055;29;20041;-78
2021/06/10 05:56:38;;;;;;;1.02;0.40;;;;;;;17.80;74.62;101000.69;4879655;29;20104;-78
2021/06/10 05:59:05;;;;;;;1.35;0.50;;;;;;;17.88;74.64;100996.75;4882560;29;20132;-77
2021/06/10 06:01:32;;;;;;;2.28;0.50;;;;;;;17.89;74.45;100999.19;4878597;29;20063;-78
2021/06/10 06:03:59;;;;;;;2.13;0.47;;;;;;;17.93;74.16;100994.41;4893933;29;20044;-78
2021/06/10 06:06:26;;;;;;;2.22;0.85;;;;;;;17.95;73.94;101002.44;4898882;29;20404;-78
2021/06/10 06:08:54;;;;;;;0.60;0.55;;;;;;;18.02;74.12;101008.88;4903671;29;20092;-78
2021/06/10 06:11:21;;;;;;;0.98;0.80;;;;;;;18.06;73.77;101003.28;4936197;23;20063;-46
2021/06/10 06:13:50;;;;;;;1.17;0.50;;;;;;;18.11;73.72;101002.91;4952631;28;20047;-46
2021/06/10 06:16:19;;;;;;;1.15;0.50;;;;;;;18.20;73.47;101003.38;4951069;28;20154;-47
2021/06/10 06:18:47;;;;;;;2.38;0.63;;;;;;;18.27;73.31;101008.25;4953621;28;20163;-47
2021/06/10 06:21:14;;;;;;;0.47;0.40;;;;;;;18.35;73.27;100996.66;4943606;28;20823;-47
2021/06/10 06:23:42;;;;;;;1.05;0.68;;;;;;;18.44;73.06;101002.75;4938040;29;20043;-47
2021/06/10 06:26:10;;;;;;;1.05;0.60;;;;;;;18.50;72.85;101000.41;4944747;29;20074;-49
2021/06/10 06:28:40;;;;;;;0.38;0.38;;;;;;;18.54;72.58;100998.41;4953096;28;20400;-46
2021/06/10 06:31:07;;;;;;;0.50;0.50;;;;;;;18.58;72.57;100997.25;4934367;28;20162;-47
2021/06/10 06:33:35;;;;;;;0.47;0.47;;;;;;;18.64;72.67;101000.44;4961467;28;20075;-46
2021/06/10 06:36:02;;;;;;;0.75;0.40;;;;;;;18.77;72.60;100999.72;4935409;29;20082;-47
2021/06/10 06:38:28;;;;;;;0.85;0.30;;;;;;;18.87;72.27;100995.34;4952654;29;20047;-46
2021/06/10 06:40:55;;;;;;;0.63;0.22;;;;;;;18.92;72.11;100994.16;4947116;28;20488;-46
2021/06/10 06:43:24;;;;;;;1.40;0.40;;;;;;;19.00;72.06;100991.00;4941573;28;20126;-47
2021/06/10 06:45:51;;;;;;;1.40;0.60;;;;;;;19.08;71.79;100991.81;4941695;29;20090;-47
2021/06/10 06:48:18;;;;;;;0.98;0.40;;;;;;;19.20;71.67;100988.63;4949154;29;20047;-49
2021/06/10 06:50:45;;;;;;;1.80;0.70;;;;;;;19.30;71.39;100994.25;4947728;28;20496;-46
2021/06/10 06:53:12;;;;;;;1.48;0.40;;;;;;;19.36;71.05;100991.84;4930379;29;20126;-47
2021/06/10 06:55:40;;;;;;;2.95;1.25;;;;;;;19.40;70.91;100987.91;4952983;28;20054;-47
2021/06/10 06:58:07;;;;;;;1.10;0.50;;;;;;;19.42;70.67;100973.44;4948501;28;20082;-49
2021/06/10 07:00:33;;;;;;;0.57;0.47;;;;;;;19.47;70.22;100975.88;4940015;29;20126;-46
2021/06/10 07:03:00;;;;;;;0.52;0.10;;;;;;;19.57;69.91;100977.06;4943870;28;20044;-46
2021/06/10 07:05:27;;;;;;;0.35;0.20;;;;;;;19.70;70.00;100972.66;4941070;29;20050;-47
2021/06/10 07:07:56;;;;;;;1.73;0.28;;;;;;;19.79;69.91;100976.69;4939502;29;20078;-47
2021/06/10 07:10:23;;;;;;;0.50;0.10;;;;;;;19.89;69.96;100969.44;4936131;29;20062;-47
2021/06/10 07:12:51;;;;;;;0.40;0.20;;;;;;;19.98;69.45;100967.84;4933446;28;20084;-46
2021/06/10 07:15:19;;;;;;;1.10;0.40;;;;;;;20.00;69.42;100973.84;4933972;29;20063;-47
2021/06/10 07:17:46;;;;;;;0.75;0.38;;;;;;;19.97;69.20;100977.47;4932093;29;20514;-46
2021/06/10 07:20:14;;;;;;;1.40;0.35;;;;;;;20.02;69.86;100979.06;4931951;29;20457;-50
2021/06/10 07:22:41;;;;;;;0.82;0.25;;;;;;;20.13;70.19;100985.47;4938984;29;20552;-47
2021/06/10 07:25:10;;;;;;;3.22;0.30;;;;;;;20.28;69.99;100970.19;4949897;28;20146;-48
2021/06/10 07:27:37;;;;;;;0.43;0.22;;;;;;;20.43;69.42;100973.78;4937710;29;20049;-49
2021/06/10 07:30:05;;;;;;;0.30;0.20;;;;;;;20.42;68.88;100958.91;4952158;29;20047;-47
2021/06/10 07:32:32;;;;;;;1.35;0.45;;;;;;;20.46;68.48;100967.34;4940054;29;20051;-46
2021/06/10 07:34:59;;;;;;;0.10;0.10;;;;;;;20.56;68.04;100958.88;4950382;29;20532;-48
2021/06/10 07:37:26;;;;;;;0.80;0.32;;;;;;;20.69;67.86;100955.59;4953557;29;20162;-46
2021/06/10 07:39:53;;;;;;;1.70;0.22;;;;;;;20.70;67.65;100960.81;4936187;28;20131;-47
2021/06/10 07:42:20;;;;;;;0.90;0.50;;;;;;;20.78;67.52;100962.41;4923926;29;20052;-47
2021/06/10 07:44:49;;;;;;;0.85;0.30;;;;;;;21.02;67.66;100964.25;4934080;29;20107;-47
2021/06/10 07:47:19;;;;;;;0.68;0.32;;;;;;;21.19;66.97;100963.38;4933910;29;20052;-54
2021/06/10 07:49:49;;;;;;;1.55;0.25;;;;;;;21.33;66.79;100956.06;4933118;29;20446;-50
2021/06/10 07:52:16;;;;;;;0.68;0.20;;;;;;;21.39;66.26;100945.97;4934136;29;20514;-47
2021/06/10 07:54:42;;;;;;;0.20;0.20;;;;;;;21.55;65.79;100957.50;4933733;29;20110;-49
2021/06/10 07:57:13;;;;;;;0.10;0.10;;;;;;;21.67;65.29;100963.44;4931816;29;20048;-49
2021/06/10 07:59:39;;;;;;;1.30;0.20;;;;;;;21.71;64.85;100955.72;4933223;29;20458;-49
2021/06/10 08:02:08;;;;;;;1.45;0.10;;;;;;;21.67;64.66;100971.88;4935064;29;20042;-47
2021/06/10 08:04:35;;;;;;;1.17;0.10;;;;;;;21.64;64.55;100971.91;4942132;28;20062;-47
2021/06/10 08:07:02;;;;;;;1.10;0.20;;;;;;;21.55;64.67;100966.75;4936579;29;20166;-48
2021/06/10 08:09:32;;;;;;;1.05;0.20;;;;;;;21.54;64.28;100973.59;4936863;28;20545;-50
2021/06/10 08:12:00;;;;;;;1.45;0.30;;;;;;;21.61;64.61;100962.28;4932678;29;20564;-47
2021/06/10 08:14:27;;;;;;;1.95;0.22;;;;;;;21.84;64.06;100965.28;4934625;29;20110;-48
2021/06/10 08:16:57;;;;;;;0.35;0.22;;;;;;;22.00;64.05;100969.63;4936181;29;20408;-50
2021/06/10 08:19:24;;;;;;;4.90;0.50;;;;;;;21.93;63.17;100953.56;4934136;29;20716;-47
2021/06/10 08:21:51;;;;;;;1.63;0.30;;;;;;;21.80;63.18;100958.09;4935693;29;20922;-47
2021/06/10 08:24:18;;;;;;;0.28;0.28;;;;;;;21.72;63.06;100959.34;4926102;28;20417;-46
2021/06/10 08:26:46;;;;;;;0.93;0.50;;;;;;;21.80;62.99;100949.63;4931090;29;20123;-49
2021/06/10 08:29:13;;;;;;;0.40;0.28;;;;;;;22.16;63.08;100953.72;4938793;29;20048;-49
2021/06/10 08:31:42;;;;;;;1.95;0.60;;;;;;;22.60;62.46;100949.19;4939129;29;20102;-50
2021/06/10 08:34:10;;;;;;;3.65;0.55;;;;;;;22.94;61.51;100944.34;4941573;29;20048;-53
2021/06/10 08:36:38;;;;;;;0.98;0.32;;;;;;;23.05;60.69;100947.81;4942221;28;20056;-47
2021/06/10 08:39:06;;;;;;;0.30;0.30;;;;;;;23.00;60.32;100959.59;4943690;29;20043;-48
2021/06/10 08:41:34;;;;;;;3.53;0.65;;;;;;;23.07;59.99;100939.69;4935692;29;20066;-49
2021/06/10 08:44:00;;;;;;;0.93;0.70;;;;;;;23.65;59.26;100946.88;4940280;29;20449;-48
2021/06/10 08:46:30;;;;;;;0.88;0.47;;;;;;;24.05;57.90;100937.28;4937393;29;20056;-51
2021/06/10 08:48:57;;;;;;;1.17;0.73;;;;;;;24.36;57.14;100945.63;4926678;29;20509;-53
2021/06/10 08:51:26;;;;;;;1.08;0.90;;;;;;;24.77;55.94;100960.94;4935519;29;20382;-50
2021/06/10 08:53:56;;;;;;;2.50;0.75;;;;;;;25.33;55.07;100946.75;4927210;29;20078;-48
2021/06/10 08:56:26;;;;;;;2.72;0.80;;;;;;;25.66;53.91;100937.03;4938026;29;20146;-50
2021/06/10 08:58:55;;;;;;;1.55;0.50;;;;;;;25.81;52.53;100949.63;4928306;29;20058;-47
2021/06/10 09:01:22;;;;;;;2.38;0.60;;;;;;;25.74;51.41;100949.78;4931918;29;20480;-50
2021/06/10 09:03:49;;;;;;;0.90;0.52;;;;;;;25.86;51.40;100948.28;4932197;29;20075;-47
2021/06/10 09:06:18;;;;;;;2.05;0.70;;;;;;;26.17;51.04;100951.53;4930612;29;20498;-49
2021/06/10 09:08:48;;;;;;;2.75;0.60;;;;;;;26.41;50.12;100936.66;4931158;29;20082;-48
2021/06/10 09:11:21;;;;;;;2.30;0.52;;;;;;;26.54;49.53;100942.34;4930742;29;20129;-45
2021/06/10 09:13:55;;;;;;;1.70;0.40;;;;;;;26.18;48.97;100938.94;4929361;29;20084;-45
2021/06/10 09:16:28;;;;;;;3.85;0.47;;;;;;;25.96;49.17;100945.16;4934039;29;20111;-48
2021/06/10 09:18:57;;;;;;;0.30;0.30;;;;;;;25.55;49.12;100939.34;4930894;29;20048;-46
2021/06/10 09:21:30;;;;;;;5.70;0.45;;;;;;;24.96;49.84;100942.34;4930872;29;20130;-45
2021/06/10 09:24:15;;;;;;;3.15;0.50;;;;;;;24.36;51.33;100946.41;4933631;29;20127;-49
2021/06/10 09:26:43;;;;;;;0.52;0.40;;;;;;;24.05;51.88;100947.78;4927044;29;20682;-45
2021/06/10 09:29:10;;;;;;;0.93;0.52;;;;;;;23.69;52.99;100950.47;4943966;29;20058;-47
2021/06/10 09:31:39;;;;;;;1.52;0.60;;;;;;;23.29;53.58;100946.66;4936358;29;20093;-48
2021/06/10 09:34:11;;;;;;;1.55;0.43;;;;;;;23.00;54.39;100945.47;4926390;29;20058;-48
2021/06/10 09:36:46;;;;;;;0.68;0.50;;;;;;;22.71;55.52;100938.59;4935520;29;20097;-49
2021/06/10 09:39:23;;;;;;;1.80;0.60;;;;;;;22.47;55.44;100956.63;4942363;29;20166;-48
2021/06/10 09:42:08;;;;;;;2.25;0.50;;;;;;;22.31;56.86;100948.75;4945529;28;20049;-48
2021/06/10 09:44:37;;;;;;;3.15;0.50;;;;;;;22.33;56.94;100949.91;4932954;28;20079;-50
2021/06/10 09:47:05;;;;;;;1.25;0.60;;;;;;;22.21;56.97;100944.03;4936193;29;20078;-47
2021/06/10 09:49:32;;;;;;;3.70;0.50;;;;;;;22.25;57.20;100948.41;4933709;29;20056;-49
2021/06/10 09:52:00;;;;;;;0.70;0.52;;;;;;;22.13;57.31;100948.94;4945997;29;20044;-47
2021/06/10 09:54:50;;;;;;;4.25;1.42;;;;;;;21.91;58.19;100941.91;4932503;29;20602;-49
2021/06/10 09:57:17;;;;;;;1.60;0.73;;;;;;;21.87;58.01;100941.13;4929923;29;20046;-47
2021/06/10 09:59:47;;;;;;;1.50;0.70;;;;;;;21.80;58.22;100946.81;4943398;29;20086;-49
2021/06/10 10:02:20;;;;;;;;;;;;;;;21.70;58.90;100937.25;4927718;29;20047;-48
2021/06/10 10:04:56;;;;;;;0.50;0.40;;;;;;;21.71;58.92;100944.47;4930592;29;19923;-48
2021/06/10 10:07:30;;;;;;;4.18;1.30;;;;;;;21.69;58.52;100951.72;4913105;29;20071;-47
2021/06/10 10:09:59;;;;;;;2.13;0.65;;;;;;;21.66;58.48;100950.56;4922687;29;20075;-53
2021/06/10 10:12:28;;;;;;;1.08;0.68;;;;;;;21.64;59.23;100943.72;4929878;29;20131;-50
2021/06/10 10:14:58;;;;;;;;;;;;;;;21.58;59.76;100928.47;4922914;29;20055;-51
2021/06/10 10:17:28;;;;;;;0.55;0.55;;;;;;;21.59;59.59;100941.34;4929197;29;19950;-51
2021/06/10 10:19:56;;;;;;;2.60;0.50;;;;;;;21.67;59.31;100942.91;4929582;29;20039;-47
2021/06/10 10:22:24;;;;;;;0.80;0.80;;;;;;;21.81;59.04;100931.50;4934970;29;20058;-49
2021/06/10 10:24:55;;;;;;;0.95;0.57;;;;;;;21.79;59.34;100940.38;4930837;29;20833;-50
2021/06/10 10:27:23;;;;;;;0.50;0.50;;;;;;;21.95;59.20;100936.25;4929715;29;20052;-50
2021/06/10 10:29:51;;;;;;;0.98;0.80;;;;;;;22.30;58.90;100933.81;4945311;29;20039;-48
2021/06/10 10:32:41;;;;;;;0.70;0.57;;;;;;;22.77;57.44;100940.53;4940008;28;20048;-53
2021/06/10 10:35:20;;;;;;;2.75;0.98;;;;;;;23.06;57.35;100937.31;4947775;29;20520;-47
2021/06/10 10:37:48;;;;;;;0.95;0.47;;;;;;;23.08;57.71;100932.84;4948074;28;20062;-47
2021/06/10 10:40:27;;;;;;;1.58;0.80;;;;;;;23.18;57.15;100934.69;4941194;29;20486;-50
2021/06/10 10:42:55;;;;;;;0.80;0.80;;;;;;;23.21;57.33;100933.84;4935293;29;20040;-47
2021/06/10 10:45:24;;;;;;;1.17;0.77;;;;;;;23.13;57.26;100938.00;4930167;29;20051;-48
2021/06/10 10:48:02;;;;;;;0.93;0.63;;;;;;;23.08;57.49;100958.25;4942634;29;20050;-50
2021/06/10 10:50:44;;;;;;;0.80;0.80;;;;;;;23.05;57.15;100942.16;4936065;29;20063;-50
2021/06/10 10:53:15;;;;;;;2.10;0.80;;;;;;;23.25;57.08;100945.06;4936996;29;20055;-49
2021/06/10 10:55:42;;;;;;;0.80;0.73;;;;;;;23.18;56.91;100951.66;4940516;29;20071;-48
2021/06/10 10:58:19;;;;;;;2.72;0.90;;;;;;;23.08;56.34;100940.50;4936721;29;20089;-49
2021/06/10 11:01:03;;;;;;;0.77;0.70;;;;;;;23.02;56.70;100932.53;4928600;29;20565;-46
2021/06/10 11:03:43;;;;;;;1.58;0.75;;;;;;;23.16;56.12;100923.03;4944111;29;20468;-51
2021/06/10 11:06:25;;;;;;;2.25;0.85;;;;;;;23.33;55.47;100923.97;4938587;29;20448;-47
2021/06/10 11:11:59;;;;;;;1.15;0.65;;;;;;;23.57;55.26;100917.13;4945020;29;19922;-52
2021/06/10 11:14:42;;;;;;;0.80;0.80;;;;;;;23.71;55.33;100910.44;4933908;29;20053;-48
2021/06/10 11:17:32;;;;;;;1.80;0.95;;;;;;;23.77;55.15;100901.06;4933730;29;20047;-50
2021/06/10 11:20:13;;;;;;;0.60;0.60;;;;;;;23.87;54.02;100902.06;4934562;29;20533;-47
2021/06/10 11:22:45;;;;;;;3.67;0.80;;;;;;;23.91;55.00;100899.97;4936902;29;20529;-49
2021/06/10 11:25:16;;;;;;;2.10;0.88;;;;;;;24.00;55.06;100900.22;4928693;29;20106;-49
2021/06/10 11:27:46;;;;;;;1.15;1.00;;;;;;;24.04;55.03;100906.63;4935106;29;20126;-49
2021/06/10 11:30:27;;;;;;;1.75;1.15;;;;;;;24.05;54.18;100908.19;4950454;29;20078;-48
2021/06/10 11:32:58;;;;;;;2.57;0.87;;;;;;;24.09;54.38;100897.66;4935294;29;20502;-48
2021/06/10 11:35:27;;;;;;;4.95;0.82;;;;;;;24.13;54.04;100887.06;4950251;28;20043;-47
2021/06/10 11:37:56;;;;;;;1.13;0.85;;;;;;;24.18;54.48;100903.53;4953702;28;20123;-46
2021/06/10 11:40:25;;;;;;;1.05;0.95;;;;;;;24.30;54.65;100905.72;4941291;29;20432;-45